首页
METAR-TAF:

METAR-TAF

机场 :

皮斯里弗, 艾伯塔, 加拿大

纬度: 56-14N, 经度: 117-26W, 海拔: 571米

当前天气观测

该预报发布于41分钟前的20:00 UTC
风速24节,风向,有时为29节阵风
温度 8°C
湿度 66%
气压 1008 hPa
能見度: 24.1公里
多云层高于3000英尺
多云层高于12000英尺
小雨

METAR: CYPE 182000Z 36024G29KT 15SM -RA BKN030 BKN120 08/02 A2976 RMK SC5AS2 SLP098

时间: 14:41 (20:41 UTC)

预报

该预报发布于2小时和3分钟前的18:38 UTC
预报有效从18日的 19点(UTC)到 19日的 07点(UTC)
风速18节,风向,有时为28节阵风
能見度: 10公里
阴天层高于2000英尺
短暂存在
从 18日的 19点(UTC)到 18日的 22点(UTC)
能見度: 10公里
多云层高于4000英尺
多云层高于12000英尺
小阵雨
从 18日的 2200点(UTC)
风速15节,风向北转东北,有时为25节阵风
能見度: 10公里
多云层高于4000英尺
成为
从 19日的 01点(UTC)到 19日的 03点(UTC)
风速15节,风向
从 19日的 0400点(UTC)
风速12节,风向
能見度: 10公里
阴天层高于1500英尺

TAF: CYPE 181838Z 1819/1907 01018G28KT P6SM OVC020 TEMPO 1819/1822 P6SM -SHRA BKN040 BKN120 FM182200 02015G25KT P6SM BKN040 BECMG 1901/1903 01015KT FM190400 01012KT P6SM OVC015 RMK NXT FCST BY 190100Z

超过4000个机场的气象观测和天气预报(METAR&TAF报告)。

可查询的气象台以黄色和红色小点在地图上表示。

将鼠标移到小点上方,可查看气象台名称。

然后点击查看天气观测和预报。

如需切换地图:点击带黑十字的绿色按钮放大地图;点击带横线的绿色按钮缩小地图;或者点击绿色箭头查看邻近地区的地图。


METAR-TAF: